Time;durP1;ratioP1;P1;durP2;ratioP2;P2;SDS_P1;SDS_P2;PMS_P1;PMS_P2;Temp;Humidity;BMP_temperature;BMP_pressure;BME280_temperature;BME280_humidity;BME280_pressure;Samples;Min_cycle;Max_cycle;Signal;HPM_P1;HPM_P2
2023/03/25 00:00:24;;;;;;;8.60;6.40;;;;;;;12.29;79.01;96825.35;109601;1289;22242;-81
2023/03/25 00:03:11;;;;;;;7.90;6.20;;;;;;;12.29;79.00;96820.10;109700;1289;23098;-81
2023/03/25 00:05:40;;;;;;;8.40;6.10;;;;;;;12.26;78.80;96814.14;109685;1289;22307;-82
2023/03/25 00:08:08;;;;;;;8.70;6.30;;;;;;;12.24;78.73;96807.66;109684;1277;22215;-83
2023/03/25 00:10:36;;;;;;;9.10;7.30;;;;;;;12.19;78.53;96803.73;109694;1289;22300;-84
2023/03/25 00:13:04;;;;;;;7.90;7.10;;;;;;;12.18;78.73;96796.89;109679;1289;22230;-85
2023/03/25 00:15:33;;;;;;;7.50;6.50;;;;;;;12.21;79.13;96799.84;109653;1289;22281;-84
2023/03/25 00:18:01;;;;;;;10.70;7.00;;;;;;;12.20;79.08;96803.59;109525;1289;205453;-85
2023/03/25 00:20:31;;;;;;;7.60;6.10;;;;;;;12.18;79.07;96810.79;109675;1289;22402;-83
2023/03/25 00:22:59;;;;;;;8.00;5.60;;;;;;;12.17;78.88;96810.44;109674;1289;22221;-83
2023/03/25 00:25:27;;;;;;;6.80;6.00;;;;;;;12.13;79.06;96812.55;109664;1289;23082;-81
2023/03/25 00:27:55;;;;;;;7.20;6.40;;;;;;;12.12;78.95;96803.66;109662;1289;22247;-82
2023/03/25 00:30:22;;;;;;;6.60;5.50;;;;;;;12.14;78.81;96799.09;109457;1289;22109;-83
2023/03/25 00:32:51;;;;;;;7.20;5.80;;;;;;;12.17;79.15;96805.80;109639;1289;23231;-84
2023/03/25 00:35:20;;;;;;;8.30;6.00;;;;;;;12.16;79.23;96812.73;109642;1289;22275;-83
2023/03/25 00:37:59;;;;;;;7.10;5.80;;;;;;;12.12;78.99;96811.35;109655;1289;22954;-84
2023/03/25 00:40:34;;;;;;;7.30;5.40;;;;;;;12.08;79.18;96809.75;109593;1289;22288;-84
2023/03/25 00:43:04;;;;;;;8.60;5.80;;;;;;;12.06;79.35;96807.92;109571;1289;23193;-83
2023/03/25 00:45:33;;;;;;;7.80;5.30;;;;;;;12.06;79.67;96806.45;109661;1289;22246;-84
2023/03/25 00:48:01;;;;;;;7.00;5.30;;;;;;;12.04;79.55;96809.48;109453;1289;22294;-83
2023/03/25 00:50:31;;;;;;;6.80;5.70;;;;;;;12.04;79.53;96811.46;109545;1289;22177;-85
2023/03/25 00:53:00;;;;;;;7.30;5.50;;;;;;;11.99;79.72;96814.31;109563;1289;22717;-83
2023/03/25 00:55:28;;;;;;;7.30;5.70;;;;;;;11.98;80.24;96809.55;109661;1289;22902;-84
2023/03/25 00:57:56;;;;;;;6.30;5.10;;;;;;;11.95;80.37;96811.88;109654;1289;22371;-84
2023/03/25 01:00:24;;;;;;;6.00;5.40;;;;;;;11.94;80.31;96810.73;109565;1289;23550;-82
2023/03/25 01:02:52;;;;;;;7.20;5.20;;;;;;;11.93;80.66;96811.77;109661;1289;22214;-83
2023/03/25 01:05:21;;;;;;;8.00;5.80;;;;;;;11.89;80.51;96815.35;109658;1289;23066;-83
2023/03/25 01:07:50;;;;;;;7.40;5.70;;;;;;;11.86;80.62;96812.95;109567;1289;22948;-83
2023/03/25 01:10:18;;;;;;;7.70;5.50;;;;;;;11.86;80.95;96815.63;109663;1289;22968;-84
2023/03/25 01:12:47;;;;;;;7.40;6.00;;;;;;;11.84;81.13;96819.40;109648;1289;22259;-84
2023/03/25 01:15:15;;;;;;;6.30;5.40;;;;;;;11.82;80.85;96814.63;109664;1289;22251;-85
2023/03/25 01:17:43;;;;;;;10.60;6.20;;;;;;;11.81;81.06;96809.52;109647;1289;22273;-83
2023/03/25 01:20:11;;;;;;;6.90;6.20;;;;;;;11.77;81.54;96799.36;109567;1289;22271;-84
2023/03/25 01:22:39;;;;;;;7.40;5.80;;;;;;;11.75;82.10;96800.67;109660;1289;23009;-85
2023/03/25 01:25:07;;;;;;;8.60;5.70;;;;;;;11.72;81.98;96794.33;109563;1289;22216;-84
2023/03/25 01:27:35;;;;;;;7.70;6.10;;;;;;;11.71;81.64;96795.07;109654;1289;22979;-84
2023/03/25 01:30:04;;;;;;;8.10;6.00;;;;;;;11.69;81.64;96789.05;109656;1289;22306;-84
2023/03/25 01:32:31;;;;;;;7.30;6.30;;;;;;;11.67;81.60;96790.13;109654;1289;22587;-84
2023/03/25 01:34:59;;;;;;;9.20;7.00;;;;;;;11.65;82.01;96786.68;109665;1289;22212;-82
2023/03/25 01:37:28;;;;;;;8.40;6.90;;;;;;;11.66;82.02;96779.44;109638;1289;23023;-83
2023/03/25 01:39:56;;;;;;;8.80;6.90;;;;;;;11.65;82.02;96784.52;109662;1285;22273;-83
2023/03/25 01:42:24;;;;;;;7.90;6.50;;;;;;;11.65;81.89;96784.55;109481;1289;22182;-84
2023/03/25 01:44:52;;;;;;;9.10;7.70;;;;;;;11.62;81.98;96779.09;109658;1289;22417;-84
2023/03/25 01:47:21;;;;;;;9.50;8.40;;;;;;;11.58;81.94;96774.88;109651;1289;22239;-83
2023/03/25 01:49:49;;;;;;;9.10;8.10;;;;;;;11.56;82.00;96781.91;109658;1289;22271;-83
2023/03/25 01:52:22;;;;;;;9.90;7.60;;;;;;;11.58;82.56;96780.95;109665;1289;22297;-83
2023/03/25 01:54:54;;;;;;;10.70;8.00;;;;;;;11.59;82.69;96780.98;109867;1279;22203;-82
2023/03/25 01:57:23;;;;;;;11.60;8.60;;;;;;;11.59;83.04;96788.45;109937;1289;22238;-83
2023/03/25 01:59:53;;;;;;;9.10;7.70;;;;;;;11.56;83.08;96789.75;109846;1289;22212;-83
2023/03/25 02:02:23;;;;;;;9.30;8.00;;;;;;;11.53;83.15;96788.34;109742;1289;22211;-82
2023/03/25 02:05:02;;;;;;;8.80;7.80;;;;;;;11.53;83.37;96783.23;109924;1289;22169;-83
2023/03/25 02:07:34;;;;;;;8.90;8.00;;;;;;;11.53;84.18;96778.95;109666;1289;22194;-84
2023/03/25 02:10:06;;;;;;;9.20;8.00;;;;;;;11.52;84.20;96778.96;109582;1289;22241;-84
2023/03/25 02:12:35;;;;;;;11.30;8.90;;;;;;;11.51;84.33;96782.88;109571;1289;22285;-84
2023/03/25 02:15:07;;;;;;;9.20;8.20;;;;;;;11.47;84.34;96784.44;109551;1289;22133;-84
2023/03/25 02:17:38;;;;;;;12.90;10.50;;;;;;;11.47;86.03;96779.83;109628;1289;22285;-84
2023/03/25 02:20:21;;;;;;;11.90;10.80;;;;;;;11.45;86.95;96774.46;109618;1289;22888;-84
2023/03/25 02:23:15;;;;;;;11.60;10.50;;;;;;;11.39;87.48;96769.02;109637;1289;22247;-84
2023/03/25 02:26:22;;;;;;;11.20;10.10;;;;;;;11.33;87.03;96770.29;109534;1289;22140;-84
2023/03/25 02:29:28;;;;;;;11.90;10.70;;;;;;;11.31;86.54;96776.70;109135;1295;22294;-84
2023/03/25 02:32:36;;;;;;;11.80;10.60;;;;;;;11.29;85.93;96789.02;109021;1294;22976;-84
2023/03/25 02:35:55;;;;;;;12.40;9.00;;;;;;;11.28;85.68;96795.36;109095;1294;23094;-84
2023/03/25 02:38:42;;;;;;;8.70;7.80;;;;;;;11.25;85.51;96796.34;108775;1298;22172;-84
2023/03/25 02:41:15;;;;;;;10.00;7.90;;;;;;;11.24;85.18;96801.55;108592;1298;22375;-84
2023/03/25 02:43:52;;;;;;;9.10;8.20;;;;;;;11.22;84.96;96803.17;108591;1299;22200;-84
2023/03/25 02:46:24;;;;;;;9.00;8.10;;;;;;;11.18;84.67;96814.19;108702;1298;22232;-84
2023/03/25 02:49:01;;;;;;;9.20;8.10;;;;;;;11.12;84.34;96816.92;108773;1298;22257;-84
2023/03/25 02:51:34;;;;;;;7.60;6.50;;;;;;;11.10;84.08;96812.92;108609;1298;23056;-84
2023/03/25 02:54:14;;;;;;;7.60;6.70;;;;;;;11.09;82.94;96809.34;108770;1298;22240;-84
2023/03/25 02:56:44;;;;;;;10.40;7.00;;;;;;;11.03;82.63;96808.83;108723;1299;22906;-84
2023/03/25 02:59:14;;;;;;;8.20;6.70;;;;;;;10.98;81.85;96805.83;108778;1298;23143;-84
2023/03/25 03:01:43;;;;;;;9.20;6.60;;;;;;;10.94;81.05;96808.42;108781;1298;23010;-84
2023/03/25 03:04:11;;;;;;;7.60;5.80;;;;;;;10.89;80.76;96814.35;108878;1294;22243;-83
2023/03/25 03:06:42;;;;;;;7.30;6.00;;;;;;;10.86;79.80;96816.55;109082;1294;22248;-83
2023/03/25 03:09:16;;;;;;;7.40;5.60;;;;;;;10.83;79.67;96811.41;109239;1289;22180;-83
2023/03/25 03:12:13;;;;;;;;;;;;;;;10.79;78.59;96810.20;109649;1289;22336;-83
2023/03/25 03:15:06;;;;;;;6.40;5.30;;;;;;;10.71;78.41;96804.66;109495;1289;22295;-83
2023/03/25 03:17:59;;;;;;;7.90;5.10;;;;;;;10.67;78.02;96819.27;109613;1289;22297;-83
2023/03/25 03:20:54;;;;;;;7.30;5.90;;;;;;;10.63;77.05;96829.52;109640;1289;23166;-83
2023/03/25 03:23:50;;;;;;;6.20;4.80;;;;;;;10.60;76.47;96831.48;109644;1289;22294;-83
2023/03/25 03:26:38;;;;;;;6.60;5.00;;;;;;;10.55;76.86;96832.96;109618;1289;22192;-83
2023/03/25 03:29:28;;;;;;;6.90;5.00;;;;;;;10.47;76.81;96839.97;109578;1289;22283;-83
2023/03/25 03:32:15;;;;;;;7.10;5.10;;;;;;;10.32;76.96;96850.66;109615;1289;22939;-82
2023/03/25 03:34:48;;;;;;;5.90;4.40;;;;;;;10.20;77.41;96852.98;109635;1289;22223;-83
2023/03/25 03:37:22;;;;;;;7.10;4.50;;;;;;;10.14;78.09;96854.18;109630;1289;22556;-83
2023/03/25 03:39:53;;;;;;;5.90;4.50;;;;;;;10.05;78.08;96855.73;109633;1289;22294;-83
2023/03/25 03:42:34;;;;;;;7.00;4.90;;;;;;;9.96;78.02;96857.22;109629;1289;22205;-84
2023/03/25 03:45:08;;;;;;;5.90;4.40;;;;;;;9.88;78.43;96864.78;109588;1289;22237;-84
2023/03/25 03:47:47;;;;;;;5.90;4.20;;;;;;;9.80;78.62;96866.75;109619;1289;22104;-84
2023/03/25 03:50:22;;;;;;;7.50;4.70;;;;;;;9.75;78.86;96869.06;109621;1289;22323;-83
2023/03/25 03:52:59;;;;;;;5.90;4.20;;;;;;;9.70;79.69;96867.12;109651;1289;22277;-83
2023/03/25 03:55:37;;;;;;;7.30;4.70;;;;;;;9.60;79.37;96866.58;109640;1289;22272;-83
2023/03/25 03:58:14;;;;;;;8.80;5.50;;;;;;;9.52;79.93;96869.61;109653;1289;22366;-83
2023/03/25 04:01:08;;;;;;;7.00;4.60;;;;;;;9.45;79.93;96861.51;109664;1289;22280;-84
2023/03/25 04:03:48;;;;;;;8.70;5.00;;;;;;;9.39;80.62;96857.29;109771;1289;22336;-85
2023/03/25 04:06:34;;;;;;;7.10;4.60;;;;;;;9.33;81.14;96854.17;109678;1289;22130;-86
2023/03/25 04:09:17;;;;;;;6.70;4.70;;;;;;;9.27;81.20;96856.52;109628;1289;23027;-86
2023/03/25 04:11:52;;;;;;;8.80;4.80;;;;;;;9.19;81.63;96856.83;109598;1289;22928;-85
2023/03/25 04:14:20;;;;;;;6.60;4.50;;;;;;;9.11;81.41;96857.16;109668;1289;22184;-85
2023/03/25 04:16:51;;;;;;;7.90;6.00;;;;;;;9.08;81.53;96851.48;109655;1289;22701;-85
2023/03/25 04:19:20;;;;;;;6.30;5.20;;;;;;;9.07;82.06;96852.85;109645;1289;23069;-88
2023/03/25 04:21:49;;;;;;;7.40;5.00;;;;;;;9.05;81.75;96856.67;109445;1289;22978;-85
2023/03/25 04:24:18;;;;;;;7.80;4.90;;;;;;;9.05;82.19;96858.89;109605;1289;22170;-85
2023/03/25 04:26:46;;;;;;;10.30;6.80;;;;;;;9.02;82.50;96858.83;109651;1289;22203;-85
2023/03/25 04:29:14;;;;;;;13.00;7.20;;;;;;;9.00;82.35;96857.58;109634;1289;22275;-85
2023/03/25 04:31:45;;;;;;;8.50;7.10;;;;;;;8.99;82.62;96854.13;109659;1289;22437;-86
2023/03/25 04:34:13;;;;;;;9.40;7.60;;;;;;;8.99;82.33;96849.77;109669;1289;22249;-85
2023/03/25 04:36:45;;;;;;;9.50;8.00;;;;;;;9.01;82.30;96853.58;109647;1289;22716;-86
2023/03/25 04:39:16;;;;;;;10.00;7.50;;;;;;;9.04;82.31;96862.92;109613;1289;22351;-85
2023/03/25 04:41:44;;;;;;;12.00;8.20;;;;;;;9.07;82.96;96865.44;109659;1289;23072;-86
2023/03/25 04:44:12;;;;;;;20.80;9.70;;;;;;;9.06;83.22;96870.77;109671;1289;22238;-85
2023/03/25 04:46:40;;;;;;;12.60;9.40;;;;;;;9.03;83.74;96875.31;109649;1289;22180;-85
2023/03/25 04:49:20;;;;;;;13.50;11.90;;;;;;;8.99;84.26;96873.52;109645;1289;22241;-86
2023/03/25 04:52:15;;;;;;;15.20;13.50;;;;;;;8.95;84.15;96870.38;109644;1289;22171;-85
2023/03/25 04:54:45;;;;;;;18.00;16.00;;;;;;;8.94;83.92;96873.67;109640;1289;22309;-86
2023/03/25 04:57:14;;;;;;;17.20;15.60;;;;;;;8.95;84.26;96880.16;109640;1289;22304;-85
2023/03/25 04:59:42;;;;;;;16.40;14.80;;;;;;;8.93;84.56;96886.58;109634;1289;22275;-84
2023/03/25 05:02:12;;;;;;;17.60;15.80;;;;;;;8.89;84.85;96883.03;109695;1289;22368;-84
2023/03/25 05:04:41;;;;;;;19.40;17.50;;;;;;;8.89;85.58;96887.55;109684;1289;23188;-84
2023/03/25 05:07:09;;;;;;;15.70;14.10;;;;;;;8.85;85.97;96885.23;109722;1289;22177;-84
2023/03/25 05:09:37;;;;;;;17.50;15.00;;;;;;;8.83;86.51;96883.48;109647;1289;22282;-85
2023/03/25 05:12:09;;;;;;;18.40;16.60;;;;;;;8.82;86.81;96885.90;109633;1289;23000;-85
2023/03/25 05:14:38;;;;;;;18.50;16.70;;;;;;;8.79;86.80;96889.08;109631;1289;23006;-85
2023/03/25 05:17:06;;;;;;;19.90;17.80;;;;;;;8.77;86.28;96891.89;109661;1289;22136;-86
2023/03/25 05:19:34;;;;;;;21.80;19.70;;;;;;;8.75;86.95;96895.56;109628;1289;22251;-84
2023/03/25 05:22:03;;;;;;;20.40;18.30;;;;;;;8.74;86.09;96900.34;109640;1289;22119;-84
2023/03/25 05:24:31;;;;;;;20.30;18.20;;;;;;;8.75;86.27;96902.86;109623;1289;22240;-85
2023/03/25 05:27:01;;;;;;;22.60;18.40;;;;;;;8.79;86.27;96901.55;109620;1289;22247;-85
2023/03/25 05:29:32;;;;;;;19.30;17.30;;;;;;;8.85;86.08;96904.34;109620;1289;22284;-85
2023/03/25 05:32:00;;;;;;;21.30;19.00;;;;;;;8.92;86.07;96910.41;109624;1289;22244;-80
2023/03/25 05:34:29;;;;;;;21.00;19.10;;;;;;;8.96;86.03;96907.98;109644;1289;22380;-83
2023/03/25 05:36:58;;;;;;;21.30;18.90;;;;;;;8.98;85.94;96907.23;109568;1289;22286;-87
2023/03/25 05:39:26;;;;;;;25.30;20.80;;;;;;;9.01;86.53;96912.37;109641;1289;22146;-90
2023/03/25 05:41:54;;;;;;;141.90;51.20;;;;;;;9.02;86.77;96919.95;109763;1289;22160;-92
2023/03/25 05:44:25;;;;;;;138.20;48.30;;;;;;;9.04;87.14;96919.17;109626;1289;22393;-87
2023/03/25 05:46:53;;;;;;;193.50;59.20;;;;;;;9.04;87.36;96917.44;109644;1289;22269;-86
2023/03/25 05:49:21;;;;;;;82.00;37.20;;;;;;;9.04;87.68;96924.00;109668;1289;22305;-88
2023/03/25 05:51:52;;;;;;;43.20;30.50;;;;;;;9.03;87.98;96925.91;109678;1289;22278;-87
2023/03/25 05:54:23;;;;;;;29.60;21.20;;;;;;;9.03;87.55;96923.81;109624;1289;22436;-89
2023/03/25 05:56:51;;;;;;;13.70;11.60;;;;;;;9.09;87.73;96916.33;109731;1289;22291;-92
2023/03/25 05:59:19;;;;;;;12.70;10.90;;;;;;;9.13;88.32;96911.61;109663;1289;22408;-88
2023/03/25 06:01:48;;;;;;;12.40;11.10;;;;;;;9.12;88.73;96908.83;109721;1289;22123;-85
2023/03/25 06:04:16;;;;;;;15.60;12.80;;;;;;;9.15;88.91;96900.79;109756;1289;22246;-87
2023/03/25 06:06:44;;;;;;;14.80;10.80;;;;;;;9.17;88.82;96895.84;109661;1289;22220;-86
2023/03/25 06:09:12;;;;;;;12.10;10.20;;;;;;;9.22;88.86;96904.04;109637;1289;22346;-88
2023/03/25 06:11:40;;;;;;;12.10;10.70;;;;;;;9.26;88.73;96908.46;109632;1289;22291;-88
2023/03/25 06:14:08;;;;;;;14.00;9.90;;;;;;;9.31;89.17;96910.84;109636;1289;22295;-91
2023/03/25 06:16:36;;;;;;;14.80;10.50;;;;;;;9.31;88.67;96912.23;109628;1289;23038;-88
2023/03/25 06:19:04;;;;;;;14.10;10.20;;;;;;;9.33;88.76;96920.00;109620;1289;22253;-87
2023/03/25 06:21:33;;;;;;;15.00;10.40;;;;;;;9.35;88.58;96931.28;109602;1289;22912;-88
2023/03/25 06:24:01;;;;;;;14.60;10.80;;;;;;;9.38;88.54;96937.19;109644;1289;22216;-88
2023/03/25 06:26:31;;;;;;;12.70;11.30;;;;;;;9.43;88.83;96937.59;109605;1289;22333;-90
2023/03/25 06:29:01;;;;;;;18.90;17.10;;;;;;;9.47;88.63;96936.30;109588;1289;22290;-88
2023/03/25 06:31:32;;;;;;;20.10;18.20;;;;;;;9.47;88.73;96940.77;109652;1289;23016;-84
2023/03/25 06:34:01;;;;;;;20.10;17.70;;;;;;;9.48;88.36;96945.57;109661;1289;23030;-88
2023/03/25 06:36:30;;;;;;;19.50;17.60;;;;;;;9.52;88.56;96945.73;109648;1289;22450;-89
2023/03/25 06:38:58;;;;;;;23.20;20.00;;;;;;;9.58;88.99;96945.13;109649;1289;22166;-90
2023/03/25 06:41:27;;;;;;;16.60;14.80;;;;;;;9.62;88.57;96944.89;109644;1289;22268;-84
2023/03/25 06:44:11;;;;;;;;;;;;;;;9.69;89.21;96947.27;109624;1289;22399;-84
2023/03/25 06:46:45;;;;;;;16.70;13.90;;;;;;;9.66;88.87;96948.85;109690;1289;22282;-92
2023/03/25 06:49:21;;;;;;;16.10;14.40;;;;;;;9.65;88.85;96938.34;109527;1289;22133;-90
2023/03/25 06:51:49;;;;;;;14.80;12.40;;;;;;;9.67;89.12;96943.09;109614;1289;22196;-88
2023/03/25 06:54:17;;;;;;;14.40;12.70;;;;;;;9.68;88.85;96947.77;109612;1289;23026;-89
2023/03/25 06:56:45;;;;;;;12.20;11.00;;;;;;;9.72;88.90;96947.80;109622;1289;22266;-89
2023/03/25 06:59:13;;;;;;;13.70;12.30;;;;;;;9.76;88.78;96949.95;109640;1289;22193;-86
2023/03/25 07:01:41;;;;;;;13.50;11.90;;;;;;;9.76;88.60;96951.13;109637;1289;22207;-88
2023/03/25 07:04:10;;;;;;;12.60;11.40;;;;;;;9.78;88.56;96953.44;109654;1289;22258;-88
2023/03/25 07:06:37;;;;;;;13.30;11.90;;;;;;;9.84;88.61;96948.73;109672;1289;22178;-88
2023/03/25 07:09:05;;;;;;;15.10;11.60;;;;;;;9.92;88.60;96942.83;109924;1289;22303;-81
2023/03/25 07:11:34;;;;;;;13.30;10.80;;;;;;;9.94;88.46;96942.39;109901;1289;23005;-80
2023/03/25 07:14:02;;;;;;;15.30;11.40;;;;;;;9.96;88.25;96942.10;109922;1289;22157;-80
2023/03/25 07:16:30;;;;;;;11.70;10.40;;;;;;;10.00;88.01;96936.38;109906;1289;22178;-80
2023/03/25 07:18:58;;;;;;;15.50;12.20;;;;;;;10.04;87.97;96931.89;109893;1289;22221;-80
2023/03/25 07:21:26;;;;;;;23.80;20.00;;;;;;;10.11;88.39;96926.20;109640;1289;22127;-81
2023/03/25 07:23:54;;;;;;;20.30;17.40;;;;;;;10.21;88.27;96924.72;109654;1283;22125;-80
2023/03/25 07:26:22;;;;;;;19.20;17.20;;;;;;;10.33;88.21;96922.80;109642;1289;22232;-84
2023/03/25 07:28:50;;;;;;;15.50;12.90;;;;;;;10.39;87.85;96926.58;109658;1289;22202;-81
2023/03/25 07:31:18;;;;;;;13.50;11.00;;;;;;;10.40;87.55;96924.23;109656;1289;22817;-81
2023/03/25 07:33:46;;;;;;;13.50;11.30;;;;;;;10.40;87.66;96918.99;109642;1289;22281;-81
2023/03/25 07:36:14;;;;;;;14.60;11.00;;;;;;;10.44;87.78;96915.10;109632;1289;22310;-80
2023/03/25 07:38:42;;;;;;;13.40;11.30;;;;;;;10.52;87.81;96916.25;109567;1289;22243;-80
2023/03/25 07:41:12;;;;;;;12.90;11.40;;;;;;;10.55;87.57;96912.83;109577;1289;22213;-80
2023/03/25 07:43:47;;;;;;;16.00;12.20;;;;;;;10.53;87.69;96917.53;109573;1276;22292;-82
2023/03/25 07:46:24;;;;;;;14.10;11.70;;;;;;;10.55;87.53;96915.30;109628;1289;22328;-81
2023/03/25 07:48:52;;;;;;;17.30;13.00;;;;;;;10.62;87.53;96906.27;109610;1289;22879;-80
2023/03/25 07:51:20;;;;;;;15.10;13.20;;;;;;;10.69;87.50;96903.18;109612;1289;22309;-80
2023/03/25 07:53:48;;;;;;;15.00;13.50;;;;;;;10.90;87.85;96907.94;109557;1289;22262;-81
2023/03/25 07:56:17;;;;;;;14.60;13.20;;;;;;;11.02;87.78;96902.88;109637;1289;22107;-81
2023/03/25 07:58:45;;;;;;;16.10;14.40;;;;;;;11.13;87.32;96905.13;109621;1289;22349;-81
2023/03/25 08:01:13;;;;;;;17.10;15.20;;;;;;;11.21;87.06;96908.13;109637;1289;22819;-81
2023/03/25 08:03:42;;;;;;;13.60;12.30;;;;;;;11.31;86.96;96910.23;109656;1289;22903;-82
2023/03/25 08:06:10;;;;;;;14.40;12.90;;;;;;;11.50;87.12;96903.14;109646;1289;22213;-81
2023/03/25 08:08:38;;;;;;;15.60;12.80;;;;;;;11.72;86.73;96903.24;109654;1289;22993;-81
2023/03/25 08:11:06;;;;;;;14.20;12.80;;;;;;;11.87;86.84;96902.19;109635;1289;22216;-81
2023/03/25 08:13:34;;;;;;;15.40;13.90;;;;;;;12.01;85.97;96902.30;109640;1289;23022;-80
2023/03/25 08:16:09;;;;;;;15.10;13.60;;;;;;;12.05;85.25;96903.63;109635;1289;22300;-80
2023/03/25 08:18:37;;;;;;;14.30;12.70;;;;;;;12.05;84.55;96901.54;109618;1289;22307;-80
2023/03/25 08:21:06;;;;;;;13.80;12.20;;;;;;;12.05;84.35;96897.59;109615;1289;22261;-81
2023/03/25 08:23:35;;;;;;;14.30;12.40;;;;;;;12.12;84.10;96896.91;109634;1289;22248;-87
2023/03/25 08:26:04;;;;;;;10.90;9.60;;;;;;;12.25;83.83;96893.14;109635;1289;22322;-82
2023/03/25 08:28:32;;;;;;;11.00;8.70;;;;;;;12.31;82.34;96896.95;109623;1289;22185;-81
2023/03/25 08:31:05;;;;;;;11.40;8.00;;;;;;;12.31;80.98;96893.56;109634;1289;22273;-80
2023/03/25 08:33:39;;;;;;;11.50;8.80;;;;;;;12.33;80.01;96894.02;109617;1289;22198;-81
2023/03/25 08:36:12;;;;;;;10.20;8.60;;;;;;;12.35;78.95;96886.89;109616;1289;22468;-81
2023/03/25 08:38:41;;;;;;;9.50;7.90;;;;;;;12.40;79.20;96887.52;109638;1289;22367;-81
2023/03/25 08:41:09;;;;;;;10.50;7.60;;;;;;;12.50;79.19;96885.02;109653;1289;22977;-81
2023/03/25 08:43:39;;;;;;;10.60;6.50;;;;;;;12.64;77.48;96886.31;109630;1289;22273;-81
2023/03/25 08:46:22;;;;;;;8.70;6.30;;;;;;;12.64;74.64;96877.20;109616;1289;22837;-80
2023/03/25 08:48:52;;;;;;;10.20;6.70;;;;;;;12.66;74.45;96885.15;109628;1289;22148;-82
2023/03/25 08:51:23;;;;;;;8.30;6.00;;;;;;;12.72;73.77;96893.75;109645;1289;22237;-84
2023/03/25 08:53:56;;;;;;;10.80;6.20;;;;;;;12.76;73.19;96894.49;109644;1289;22220;-81
2023/03/25 08:56:28;;;;;;;8.10;5.30;;;;;;;12.82;73.54;96891.69;109615;1289;22929;-82
2023/03/25 08:58:56;;;;;;;7.30;5.60;;;;;;;12.87;71.02;96893.21;109645;1289;22260;-82
2023/03/25 09:01:24;;;;;;;10.20;6.20;;;;;;;12.86;69.38;96893.58;109650;1289;22307;-82
2023/03/25 09:03:56;;;;;;;11.20;6.80;;;;;;;12.89;69.62;96893.98;109660;1289;22253;-82
2023/03/25 09:06:27;;;;;;;11.20;6.20;;;;;;;12.93;68.24;96893.58;109673;1289;23033;-82
2023/03/25 09:09:16;;;;;;;10.40;6.20;;;;;;;12.96;68.26;96892.27;109651;1289;22330;-82
2023/03/25 09:11:47;;;;;;;10.70;5.90;;;;;;;12.98;66.77;96895.11;109651;1289;22224;-82
2023/03/25 09:14:19;;;;;;;8.60;5.70;;;;;;;12.94;66.36;96894.98;109618;1289;22303;-81
2023/03/25 09:16:50;;;;;;;10.30;6.00;;;;;;;12.90;66.92;96880.87;109569;1289;23023;-82
2023/03/25 09:19:20;;;;;;;9.30;6.20;;;;;;;12.91;67.10;96873.64;109614;1289;22187;-80
2023/03/25 09:21:48;;;;;;;10.90;6.70;;;;;;;12.98;67.71;96882.38;109546;1284;22217;-80
2023/03/25 09:24:16;;;;;;;7.70;5.90;;;;;;;13.05;66.85;96868.46;109652;1289;22224;-80
2023/03/25 09:26:44;;;;;;;10.20;6.30;;;;;;;13.20;66.87;96871.35;109646;1284;22206;-80
2023/03/25 09:29:12;;;;;;;8.30;5.60;;;;;;;13.24;67.11;96875.50;109570;1285;22219;-89
2023/03/25 09:31:47;;;;;;;10.70;6.10;;;;;;;13.26;66.68;96869.55;109614;1289;22256;-87
2023/03/25 09:34:17;;;;;;;10.60;6.50;;;;;;;13.25;66.94;96869.98;109605;1289;22110;-91
2023/03/25 09:36:47;;;;;;;8.90;5.80;;;;;;;13.27;66.93;96867.89;109630;1289;22343;-90
2023/03/25 09:39:19;;;;;;;9.20;6.30;;;;;;;13.37;66.97;96868.73;109681;1289;23099;-88
2023/03/25 09:42:25;;;;;;;9.40;5.90;;;;;;;13.51;66.79;96871.84;109527;1289;22213;-88
2023/03/25 09:44:59;;;;;;;7.80;4.90;;;;;;;13.70;65.23;96881.60;109693;1289;22244;-87
2023/03/25 09:47:44;;;;;;;10.80;5.60;;;;;;;13.70;62.80;96882.34;109655;1281;22850;-88
2023/03/25 09:50:14;;;;;;;;;;;;;;;13.56;61.17;96881.49;109610;1289;22337;-87
2023/03/25 09:52:57;;;;;;;8.30;5.30;;;;;;;13.40;61.05;96875.63;109707;1286;22833;-88
2023/03/25 09:55:31;;;;;;;8.00;5.40;;;;;;;13.23;61.43;96879.66;109583;1287;22974;-87
2023/03/25 09:58:36;;;;;;;9.90;7.30;;;;;;;13.13;61.11;96881.44;109607;1289;23024;-87
2023/03/25 10:01:18;;;;;;;9.90;6.70;;;;;;;13.05;61.34;96877.16;109590;1289;22236;-87
2023/03/25 10:04:16;;;;;;;9.50;6.20;;;;;;;13.17;61.37;96861.46;109695;1289;22972;-88
2023/03/25 10:06:56;;;;;;;8.10;6.30;;;;;;;13.43;61.31;96854.46;109615;1289;22209;-87
2023/03/25 10:09:49;;;;;;;8.40;5.40;;;;;;;13.65;60.99;96850.81;109574;1289;22264;-87
2023/03/25 10:12:43;;;;;;;8.80;5.70;;;;;;;13.68;60.24;96848.42;109667;1289;22183;-88
2023/03/25 10:15:33;;;;;;;6.40;4.80;;;;;;;13.64;60.41;96840.80;109668;1289;22195;-86
2023/03/25 10:18:32;;;;;;;8.60;6.40;;;;;;;13.61;59.13;96846.68;109607;1289;22454;-87
2023/03/25 10:21:18;;;;;;;8.00;5.30;;;;;;;13.64;59.40;96839.59;109629;1289;22503;-91
2023/03/25 10:24:15;;;;;;;10.40;5.30;;;;;;;13.82;58.48;96827.32;109610;1289;23107;-91
2023/03/25 10:26:43;;;;;;;8.30;5.40;;;;;;;14.11;58.02;96831.64;109696;1289;22422;-89
2023/03/25 10:29:18;;;;;;;8.80;5.50;;;;;;;14.27;57.81;96817.65;109688;1289;22113;-89
2023/03/25 10:31:58;;;;;;;9.90;5.10;;;;;;;14.40;57.91;96819.21;109542;1289;22171;-90
2023/03/25 10:34:36;;;;;;;7.70;5.30;;;;;;;14.60;56.43;96817.16;109690;1289;22187;-88
2023/03/25 10:37:11;;;;;;;8.00;4.80;;;;;;;14.59;56.08;96808.53;109682;1289;22319;-89
2023/03/25 10:39:44;;;;;;;11.10;5.30;;;;;;;14.43;55.90;96803.25;109777;1289;22197;-89
2023/03/25 10:42:26;;;;;;;7.60;4.90;;;;;;;14.45;56.23;96801.75;109917;1289;22174;-86
2023/03/25 10:44:54;;;;;;;9.10;4.60;;;;;;;14.40;55.73;96795.66;109897;1289;22224;-83
2023/03/25 10:47:30;;;;;;;10.00;4.90;;;;;;;14.42;55.21;96792.61;109908;1289;22181;-83
2023/03/25 10:49:59;;;;;;;7.20;4.30;;;;;;;14.59;55.74;96789.32;109802;1289;22965;-83
2023/03/25 10:57:26;;;;;;;6.40;2.90;;;;;;;15.37;53.61;96775.13;109683;1289;22940;-83
2023/03/25 11:00:03;;;;;;;7.40;3.70;;;;;;;15.46;52.02;96769.02;109614;1289;22878;-81
2023/03/25 11:02:32;;;;;;;6.30;3.20;;;;;;;15.34;51.86;96769.10;109606;1289;22307;-81
2023/03/25 11:05:03;;;;;;;5.70;3.30;;;;;;;15.18;51.80;96772.27;109678;1289;22214;-82
2023/03/25 11:07:40;;;;;;;6.40;3.60;;;;;;;14.97;51.51;96778.25;109671;1289;22081;-83
2023/03/25 11:10:25;;;;;;;5.10;3.30;;;;;;;14.69;51.46;96779.19;109301;1289;22202;-81
2023/03/25 11:12:57;;;;;;;7.80;4.20;;;;;;;14.32;53.50;96827.60;109670;1289;22181;-83
2023/03/25 11:15:32;;;;;;;7.10;5.00;;;;;;;13.54;59.23;96852.67;109655;1289;23054;-82
2023/03/25 11:18:15;;;;;;;8.60;4.80;;;;;;;12.49;64.09;96829.23;109566;1289;22165;-84
2023/03/25 11:21:39;;;;;;;9.40;6.50;;;;;;;11.71;68.55;96825.36;109667;1289;22126;-88
2023/03/25 11:24:08;;;;;;;9.40;7.00;;;;;;;10.98;72.75;96829.86;109439;1289;22220;-89
2023/03/25 11:26:41;;;;;;;8.20;6.50;;;;;;;10.61;76.00;96827.06;109525;1289;22213;-87
2023/03/25 11:29:17;;;;;;;9.30;6.10;;;;;;;10.35;77.54;96816.38;109511;1289;22132;-88
2023/03/25 11:31:56;;;;;;;8.10;6.10;;;;;;;10.12;78.63;96797.86;109600;1289;22305;-88
2023/03/25 11:34:25;;;;;;;13.20;8.00;;;;;;;10.07;79.29;96794.31;109588;1289;22202;-82
2023/03/25 11:36:59;;;;;;;9.70;7.40;;;;;;;9.99;81.32;96763.23;109465;1289;22492;-83
2023/03/25 11:39:41;;;;;;;10.40;7.90;;;;;;;10.18;81.45;96785.70;109669;1289;22221;-83
2023/03/25 11:42:13;;;;;;;13.30;8.10;;;;;;;10.44;82.42;96785.35;109668;1289;22227;-85
2023/03/25 11:44:49;;;;;;;12.60;7.60;;;;;;;10.79;82.03;96782.70;109663;1289;22418;-82
2023/03/25 11:47:24;;;;;;;9.40;7.80;;;;;;;10.96;81.60;96785.01;109532;1289;22147;-84
2023/03/25 11:49:55;;;;;;;13.60;6.70;;;;;;;10.99;80.60;96788.07;109672;1289;22416;-83
2023/03/25 11:52:26;;;;;;;10.50;7.00;;;;;;;11.00;80.10;96791.70;109551;1289;22235;-83
2023/03/25 11:54:55;;;;;;;8.60;5.90;;;;;;;11.02;80.65;96783.64;109666;1289;22204;-84